Binger, Oklahoma
Current Conditions -  °F | °C
As of 1:35 PM on Thursday 30 Oct 2014 (Local Time) from KRQO Reporting Station
Clear Clear  
Wind Chill: 72°   Ceiling: Unl
Heat Index: 72°   Visibility: 10mi
Dew Point: 37°   Wind: 20mph
Humidity: 29%   Direction: 360°N
Pressure: 30.15"   Gusts: 23mph
Location:  35.31°N, 98.34°W
Report Text: KRQO 301835Z AUTO 36017G20KT 10SM CLR 22/03 A3015 RMK AO2
Loading
Personal Weather Stations






























Interactive Weather Map
Tropical Storm Tracking
New forecast layout! Learn more

10-Day Weather Forecast

Advertisements
Track Severe Weather on mobile